createdAt,value
2018-07-07T00:00:08.975Z,1020.79
2018-07-07T00:01:09.001Z,1020.79
2018-07-07T00:02:09.029Z,1020.82
2018-07-07T00:03:09.049Z,1020.77
2018-07-07T00:04:09.069Z,1020.84
2018-07-07T00:05:09.109Z,1020.83
2018-07-07T00:06:09.122Z,1020.83
2018-07-07T00:07:09.145Z,1020.78
2018-07-07T00:08:09.173Z,1020.79
2018-07-07T00:09:09.196Z,1020.82
2018-07-07T00:10:09.226Z,1020.85
2018-07-07T00:11:09.240Z,1020.84
2018-07-07T00:12:09.265Z,1020.83
2018-07-07T00:13:09.284Z,1020.84
2018-07-07T00:14:09.311Z,1020.80
2018-07-07T00:15:09.342Z,1020.87
2018-07-07T00:16:09.359Z,1020.85
2018-07-07T00:17:09.383Z,1020.80
2018-07-07T00:18:09.412Z,1020.80
2018-07-07T00:19:09.442Z,1020.82
2018-07-07T00:20:09.461Z,1020.81
2018-07-07T00:21:09.484Z,1020.82
2018-07-07T00:22:09.508Z,1020.82
2018-07-07T00:23:09.532Z,1020.85
2018-07-07T00:24:09.554Z,1020.80
2018-07-07T00:25:09.583Z,1020.78
2018-07-07T00:26:09.601Z,1020.81
2018-07-07T00:27:09.685Z,1020.80
2018-07-07T00:28:09.651Z,1020.78
2018-07-07T00:29:09.674Z,1020.84
2018-07-07T00:30:09.701Z,1020.81
2018-07-07T00:31:09.721Z,1020.85
2018-07-07T00:32:09.755Z,1020.82
2018-07-07T00:33:09.769Z,1020.83
2018-07-07T00:34:09.789Z,1020.83
2018-07-07T00:35:09.823Z,1020.82
2018-07-07T00:36:09.838Z,1020.80
2018-07-07T00:37:09.869Z,1020.83
2018-07-07T00:38:09.892Z,1020.81
2018-07-07T00:39:09.917Z,1020.83
2018-07-07T00:40:09.940Z,1020.79
2018-07-07T00:41:09.965Z,1020.83
2018-07-07T00:42:09.985Z,1020.84
2018-07-07T00:43:10.009Z,1020.82
2018-07-07T00:44:10.039Z,1020.82
2018-07-07T00:45:10.057Z,1020.81
2018-07-07T00:46:10.079Z,1020.80
2018-07-07T00:47:10.103Z,1020.79
2018-07-07T00:48:10.136Z,1020.84
2018-07-07T00:49:10.156Z,1020.82
2018-07-07T00:50:10.178Z,1020.85
2018-07-07T00:51:10.200Z,1020.85
2018-07-07T00:52:10.224Z,1020.87
2018-07-07T00:53:10.249Z,1020.86
2018-07-07T00:54:10.273Z,1020.86
2018-07-07T00:55:10.300Z,1020.88
2018-07-07T00:56:10.318Z,1020.90
2018-07-07T00:57:10.342Z,1020.87
2018-07-07T00:58:10.364Z,1020.88
2018-07-07T00:59:10.399Z,1020.90
2018-07-07T01:00:10.416Z,1020.92
2018-07-07T01:01:10.440Z,1020.92
2018-07-07T01:02:10.462Z,1020.94
2018-07-07T01:03:10.489Z,1020.96
2018-07-07T01:04:10.515Z,1020.90
2018-07-07T01:05:10.538Z,1020.90
2018-07-07T01:06:10.558Z,1020.90
2018-07-07T01:07:10.586Z,1020.95
2018-07-07T01:08:10.608Z,1020.95
2018-07-07T01:09:10.634Z,1020.95
2018-07-07T01:10:10.659Z,1020.97
2018-07-07T01:11:10.688Z,1021.03
2018-07-07T01:12:10.709Z,1020.95
2018-07-07T01:13:10.724Z,1020.95
2018-07-07T01:14:10.755Z,1021.01
2018-07-07T01:15:10.771Z,1020.99
2018-07-07T01:16:10.799Z,1020.97
2018-07-07T01:17:10.823Z,1021.01
2018-07-07T01:18:10.849Z,1021.00
2018-07-07T01:19:10.885Z,1020.99
2018-07-07T01:20:10.888Z,1021.00
2018-07-07T01:21:10.924Z,1021.01
2018-07-07T01:22:10.940Z,1021.01
2018-07-07T01:23:10.966Z,1021.03
2018-07-07T01:24:10.993Z,1021.02
2018-07-07T01:25:11.012Z,1020.99
2018-07-07T01:26:11.042Z,1020.97
2018-07-07T01:27:11.062Z,1020.93
2018-07-07T01:28:11.090Z,1020.99
2018-07-07T01:29:11.120Z,1020.96
2018-07-07T01:30:11.134Z,1020.95
2018-07-07T01:31:11.156Z,1020.92
2018-07-07T01:32:11.182Z,1020.96
2018-07-07T01:33:11.208Z,1020.93
2018-07-07T01:34:11.230Z,1020.92
2018-07-07T01:35:11.256Z,1020.92
2018-07-07T01:36:11.278Z,1020.88
2018-07-07T01:37:11.304Z,1020.90
2018-07-07T01:38:11.321Z,1020.89
2018-07-07T01:39:11.346Z,1020.85
2018-07-07T01:40:11.377Z,1020.86
2018-07-07T01:41:11.401Z,1020.86
2018-07-07T01:42:11.419Z,1020.83
2018-07-07T01:43:11.448Z,1020.80
2018-07-07T01:44:11.468Z,1020.80
2018-07-07T01:45:11.493Z,1020.79
2018-07-07T01:46:11.516Z,1020.77
2018-07-07T01:47:11.534Z,1020.81
2018-07-07T01:48:11.568Z,1020.79
2018-07-07T01:49:11.590Z,1020.82
2018-07-07T01:50:11.610Z,1020.77
2018-07-07T01:51:11.637Z,1020.79
2018-07-07T01:52:11.656Z,1020.80
2018-07-07T01:53:11.684Z,1020.78
2018-07-07T01:54:11.712Z,1020.80
2018-07-07T01:55:11.736Z,1020.78
2018-07-07T01:56:11.758Z,1020.83
2018-07-07T01:57:11.774Z,1020.76
2018-07-07T01:58:11.807Z,1020.78
2018-07-07T01:59:11.829Z,1020.79
2018-07-07T02:00:11.848Z,1020.74
2018-07-07T02:01:11.882Z,1020.81
2018-07-07T02:02:11.894Z,1020.84
2018-07-07T02:03:11.925Z,1020.82
2018-07-07T02:04:11.943Z,1020.85
2018-07-07T02:05:11.975Z,1020.89
2018-07-07T02:06:11.989Z,1020.88
2018-07-07T02:07:12.014Z,1020.80
2018-07-07T02:08:12.045Z,1020.80
2018-07-07T02:09:12.059Z,1020.81
2018-07-07T02:10:12.086Z,1020.83
2018-07-07T02:11:12.111Z,1020.86
2018-07-07T02:12:12.138Z,1020.87
2018-07-07T02:13:12.160Z,1020.90
2018-07-07T02:14:12.185Z,1020.89
2018-07-07T02:15:12.208Z,1020.85
2018-07-07T02:16:12.230Z,1020.86
2018-07-07T02:17:12.249Z,1020.87
2018-07-07T02:18:12.278Z,1020.84
2018-07-07T02:19:12.304Z,1020.88
2018-07-07T02:20:12.328Z,1020.88
2018-07-07T02:21:12.361Z,1020.90
2018-07-07T02:22:12.369Z,1020.91
2018-07-07T02:23:12.399Z,1020.93
2018-07-07T02:24:12.426Z,1020.94
2018-07-07T02:25:12.446Z,1020.95
2018-07-07T02:26:12.471Z,1020.90
2018-07-07T02:27:12.492Z,1020.90
2018-07-07T02:28:12.518Z,1020.87
2018-07-07T02:29:12.570Z,1020.93
2018-07-07T02:30:12.568Z,1020.96
2018-07-07T02:31:12.585Z,1020.89
2018-07-07T02:32:12.611Z,1020.88
2018-07-07T02:33:12.638Z,1020.91
2018-07-07T02:34:12.657Z,1020.90
2018-07-07T02:35:12.687Z,1020.96
2018-07-07T02:36:12.705Z,1020.88
2018-07-07T02:37:12.728Z,1020.91
2018-07-07T02:38:12.750Z,1020.93
2018-07-07T02:39:12.782Z,1020.94
2018-07-07T02:40:12.800Z,1020.92
2018-07-07T02:41:12.824Z,1020.95
2018-07-07T02:42:12.848Z,1020.92
2018-07-07T02:43:12.872Z,1020.94
2018-07-07T02:44:12.895Z,1020.97
2018-07-07T02:45:12.930Z,1020.96
2018-07-07T02:46:13.021Z,1020.95
2018-07-07T02:47:12.963Z,1020.98
2018-07-07T02:48:12.991Z,1020.97
2018-07-07T02:49:13.016Z,1020.99
2018-07-07T02:50:13.039Z,1020.97
2018-07-07T02:51:13.063Z,1021.03
2018-07-07T02:52:13.084Z,1020.99
2018-07-07T02:53:13.111Z,1021.01
2018-07-07T02:54:13.140Z,1021.04
2018-07-07T02:55:13.155Z,1021.04
2018-07-07T02:56:13.184Z,1021.05
2018-07-07T02:57:13.202Z,1021.02
2018-07-07T02:58:13.226Z,1021.02
2018-07-07T02:59:13.256Z,1021.05
2018-07-07T03:00:13.276Z,1021.08
2018-07-07T03:01:13.302Z,1021.07
2018-07-07T03:02:13.325Z,1021.08
2018-07-07T03:03:13.357Z,1021.07
2018-07-07T03:04:13.368Z,1021.05
2018-07-07T03:05:13.397Z,1021.06
2018-07-07T03:06:13.414Z,1021.06
2018-07-07T03:07:13.443Z,1021.06
2018-07-07T03:08:13.467Z,1021.12
2018-07-07T03:09:13.487Z,1021.09
2018-07-07T03:10:13.516Z,1021.08
2018-07-07T03:11:13.539Z,1021.08
2018-07-07T03:12:13.569Z,1021.12
2018-07-07T03:13:13.586Z,1021.14
2018-07-07T03:14:13.611Z,1021.12
2018-07-07T03:15:13.634Z,1021.14
2018-07-07T03:16:13.655Z,1021.14
2018-07-07T03:17:13.681Z,1021.11
2018-07-07T03:18:13.700Z,1021.11
2018-07-07T03:19:13.732Z,1021.06
2018-07-07T03:20:13.765Z,1021.13
2018-07-07T03:21:13.774Z,1021.06
2018-07-07T03:22:13.801Z,1021.07
2018-07-07T03:23:13.822Z,1021.08
2018-07-07T03:24:13.849Z,1021.09
2018-07-07T03:25:13.875Z,1021.10
2018-07-07T03:26:13.895Z,1021.07
2018-07-07T03:27:13.921Z,1021.11
2018-07-07T03:28:13.947Z,1021.11
2018-07-07T03:29:13.968Z,1021.18
2018-07-07T03:30:13.997Z,1021.14
2018-07-07T03:31:14.017Z,1021.20
2018-07-07T03:32:14.046Z,1021.13
2018-07-07T03:33:14.065Z,1021.14
2018-07-07T03:34:14.089Z,1021.20
2018-07-07T03:35:14.108Z,1021.17
2018-07-07T03:36:14.136Z,1021.21
2018-07-07T03:37:14.160Z,1021.19
2018-07-07T03:38:14.180Z,1021.23
2018-07-07T03:39:14.207Z,1021.19
2018-07-07T03:40:14.234Z,1021.16
2018-07-07T03:41:14.255Z,1021.24
2018-07-07T03:42:14.291Z,1021.21
2018-07-07T03:43:14.302Z,1021.16
2018-07-07T03:44:14.326Z,1021.19
2018-07-07T03:45:14.350Z,1021.16
2018-07-07T03:46:14.373Z,1021.19
2018-07-07T03:47:14.393Z,1021.15
2018-07-07T03:48:14.419Z,1021.19
2018-07-07T03:49:14.499Z,1021.23
2018-07-07T03:50:14.474Z,1021.28
2018-07-07T03:51:14.497Z,1021.28
2018-07-07T03:52:14.521Z,1021.24
2018-07-07T03:53:14.535Z,1021.24
2018-07-07T03:54:14.564Z,1021.31
2018-07-07T03:55:14.583Z,1021.31
2018-07-07T03:56:14.613Z,1021.30
2018-07-07T03:57:14.633Z,1021.30
2018-07-07T03:58:14.655Z,1021.32
2018-07-07T03:59:14.687Z,1021.34
2018-07-07T04:00:14.703Z,1021.29
2018-07-07T04:01:14.734Z,1021.30
2018-07-07T04:02:14.759Z,1021.30
2018-07-07T04:03:14.779Z,1021.31
2018-07-07T04:04:14.807Z,1021.38
2018-07-07T04:05:14.821Z,1021.33
2018-07-07T04:06:14.848Z,1021.36
2018-07-07T04:07:14.881Z,1021.32
2018-07-07T04:08:14.893Z,1021.33
2018-07-07T04:09:14.921Z,1021.34
2018-07-07T04:10:14.941Z,1021.36
2018-07-07T04:11:14.962Z,1021.33
2018-07-07T04:12:14.995Z,1021.32
2018-07-07T04:13:15.017Z,1021.38
2018-07-07T04:14:15.037Z,1021.38
2018-07-07T04:15:15.061Z,1021.38
2018-07-07T04:16:15.092Z,1021.32
2018-07-07T04:17:15.110Z,1021.34
2018-07-07T04:18:15.139Z,1021.38
2018-07-07T04:19:15.161Z,1021.41
2018-07-07T04:20:15.185Z,1021.36
2018-07-07T04:21:15.213Z,1021.34
2018-07-07T04:22:15.232Z,1021.37
2018-07-07T04:23:15.263Z,1021.37
2018-07-07T04:24:15.279Z,1021.37
2018-07-07T04:25:15.304Z,1021.32
2018-07-07T04:26:15.325Z,1021.37
2018-07-07T04:27:15.354Z,1021.34
2018-07-07T04:28:15.375Z,1021.38
2018-07-07T04:29:15.399Z,1021.38
2018-07-07T04:30:15.421Z,1021.35
2018-07-07T04:31:15.443Z,1021.37
2018-07-07T04:32:15.467Z,1021.38
2018-07-07T04:33:15.495Z,1021.39
2018-07-07T04:34:15.520Z,1021.42
2018-07-07T04:35:15.542Z,1021.41
2018-07-07T04:36:15.569Z,1021.42
2018-07-07T04:37:15.589Z,1021.38
2018-07-07T04:38:15.610Z,1021.37
2018-07-07T04:39:15.635Z,1021.39
2018-07-07T04:40:15.659Z,1021.35
2018-07-07T04:41:15.685Z,1021.33
2018-07-07T04:42:15.705Z,1021.38
2018-07-07T04:43:15.732Z,1021.35
2018-07-07T04:44:15.757Z,1021.35
2018-07-07T04:45:15.781Z,1021.35
2018-07-07T04:46:15.801Z,1021.34
2018-07-07T04:47:15.831Z,1021.41
2018-07-07T04:48:15.859Z,1021.40
2018-07-07T04:49:15.879Z,1021.40
2018-07-07T04:50:15.913Z,1021.31
2018-07-07T04:51:15.925Z,1021.35
2018-07-07T04:52:15.959Z,1021.34
2018-07-07T04:53:15.976Z,1021.35
2018-07-07T04:54:15.990Z,1021.40
2018-07-07T04:55:16.019Z,1021.33
2018-07-07T04:56:16.045Z,1021.38
2018-07-07T04:57:16.080Z,1021.35
2018-07-07T04:58:16.097Z,1021.32
2018-07-07T04:59:16.112Z,1021.34
2018-07-07T05:00:16.139Z,1021.35
2018-07-07T05:01:16.163Z,1021.39
2018-07-07T05:02:16.183Z,1021.31
2018-07-07T05:03:16.212Z,1021.36
2018-07-07T05:04:16.234Z,1021.33
2018-07-07T05:05:16.261Z,1021.43
2018-07-07T05:06:16.285Z,1021.33
2018-07-07T05:07:16.309Z,1021.36
2018-07-07T05:08:16.328Z,1021.38
2018-07-07T05:09:16.356Z,1021.33
2018-07-07T05:10:16.380Z,1021.41
2018-07-07T05:11:16.404Z,1021.43
2018-07-07T05:12:16.432Z,1021.34
2018-07-07T05:13:16.448Z,1021.40
2018-07-07T05:14:16.474Z,1021.42
2018-07-07T05:15:16.504Z,1021.36
2018-07-07T05:16:16.525Z,1021.34
2018-07-07T05:17:16.559Z,1021.38
2018-07-07T05:18:16.570Z,1021.45
2018-07-07T05:19:16.598Z,1021.41
2018-07-07T05:20:16.621Z,1021.44
2018-07-07T05:21:16.644Z,1021.41
2018-07-07T05:22:16.672Z,1021.42
2018-07-07T05:23:16.698Z,1021.37
2018-07-07T05:24:16.720Z,1021.38
2018-07-07T05:25:16.742Z,1021.33
2018-07-07T05:26:16.768Z,1021.37
2018-07-07T05:27:16.797Z,1021.42
2018-07-07T05:28:16.813Z,1021.38
2018-07-07T05:29:16.846Z,1021.31
2018-07-07T05:30:16.868Z,1021.36
2018-07-07T05:31:16.903Z,1021.33
2018-07-07T05:32:16.917Z,1021.40
2018-07-07T05:33:16.932Z,1021.45
2018-07-07T05:34:16.956Z,1021.31
2018-07-07T05:35:16.980Z,1021.40
2018-07-07T05:36:17.022Z,1021.35
2018-07-07T05:37:17.117Z,1021.39
2018-07-07T05:38:17.056Z,1021.41
2018-07-07T05:39:17.080Z,1021.41
2018-07-07T05:40:17.106Z,1021.45
2018-07-07T05:41:17.125Z,1021.35
2018-07-07T05:42:17.153Z,1021.39
2018-07-07T05:43:17.179Z,1021.42
2018-07-07T05:44:17.204Z,1021.34
2018-07-07T05:45:17.220Z,1021.33
2018-07-07T05:46:17.246Z,1021.33
2018-07-07T05:47:17.271Z,1021.31
2018-07-07T05:48:17.298Z,1021.36
2018-07-07T05:49:17.318Z,1021.25
2018-07-07T05:50:17.344Z,1021.26
2018-07-07T05:51:17.370Z,1021.27
2018-07-07T05:52:17.392Z,1021.31
2018-07-07T05:53:17.416Z,1021.27
2018-07-07T05:54:17.440Z,1021.35
2018-07-07T05:55:17.465Z,1021.32
2018-07-07T05:56:17.494Z,1021.48
2018-07-07T05:57:17.549Z,1021.38
2018-07-07T05:58:17.536Z,1021.37
2018-07-07T05:59:17.561Z,1021.43
2018-07-07T06:00:17.587Z,1021.52
2018-07-07T06:01:17.612Z,1021.40
2018-07-07T06:02:17.634Z,1021.40
2018-07-07T06:03:17.660Z,1021.43
2018-07-07T06:04:17.688Z,1021.41
2018-07-07T06:05:17.711Z,1021.49
2018-07-07T06:06:17.735Z,1021.48
2018-07-07T06:07:17.757Z,1021.43
2018-07-07T06:08:17.782Z,1021.42
2018-07-07T06:09:17.806Z,1021.46
2018-07-07T06:10:17.828Z,1021.39
2018-07-07T06:11:17.852Z,1021.43
2018-07-07T06:12:17.879Z,1021.58
2018-07-07T06:13:17.903Z,1021.49
2018-07-07T06:14:17.931Z,1021.48
2018-07-07T06:15:17.953Z,1021.45
2018-07-07T06:16:17.970Z,1021.38
2018-07-07T06:17:17.997Z,1021.47
2018-07-07T06:18:18.036Z,1021.64
2018-07-07T06:19:18.048Z,1021.48
2018-07-07T06:20:18.073Z,1021.59
2018-07-07T06:21:18.101Z,1021.53
2018-07-07T06:22:18.125Z,1021.54
2018-07-07T06:23:18.142Z,1021.50
2018-07-07T06:24:18.170Z,1021.49
2018-07-07T06:25:18.195Z,1021.52
2018-07-07T06:26:18.219Z,1021.49
2018-07-07T06:27:18.245Z,1021.57
2018-07-07T06:28:18.270Z,1021.56
2018-07-07T06:29:18.294Z,1021.57
2018-07-07T06:30:18.323Z,1021.57
2018-07-07T06:31:18.340Z,1021.60
2018-07-07T06:32:18.374Z,1021.53
2018-07-07T06:33:18.387Z,1021.62
2018-07-07T06:34:18.410Z,1021.60
2018-07-07T06:35:18.445Z,1021.76
2018-07-07T06:36:18.461Z,1021.59
2018-07-07T06:37:18.488Z,1021.50
2018-07-07T06:38:18.510Z,1021.53
2018-07-07T06:39:18.538Z,1021.62
2018-07-07T06:40:18.557Z,1021.59
2018-07-07T06:41:18.584Z,1021.57
2018-07-07T06:42:18.613Z,1021.55
2018-07-07T06:43:18.633Z,1021.61
2018-07-07T06:44:18.655Z,1021.64
2018-07-07T06:45:18.681Z,1021.73
2018-07-07T06:46:18.710Z,1021.69
2018-07-07T06:47:18.732Z,1021.59
2018-07-07T06:48:18.757Z,1021.62
2018-07-07T06:49:18.794Z,1021.63
2018-07-07T06:50:18.799Z,1021.65
2018-07-07T06:51:18.825Z,1021.64
2018-07-07T06:52:18.851Z,1021.60
2018-07-07T06:53:18.874Z,1021.57
2018-07-07T06:54:18.902Z,1021.59
2018-07-07T06:55:18.929Z,1021.52
2018-07-07T06:56:18.948Z,1021.56
2018-07-07T06:57:18.972Z,1021.56
2018-07-07T06:58:18.997Z,1021.58
2018-07-07T06:59:19.027Z,1021.64
2018-07-07T07:00:19.049Z,1021.60
2018-07-07T07:01:19.070Z,1021.61
2018-07-07T07:02:19.098Z,1021.61
2018-07-07T07:03:19.155Z,1021.62
2018-07-07T07:04:19.146Z,1021.62
2018-07-07T07:05:19.171Z,1021.66
2018-07-07T07:06:19.207Z,1021.63
2018-07-07T07:07:19.222Z,1021.65
2018-07-07T07:08:19.253Z,1021.60
2018-07-07T07:09:19.272Z,1021.59
2018-07-07T07:10:19.291Z,1021.65
2018-07-07T07:11:19.322Z,1021.61
2018-07-07T07:12:19.341Z,1021.63
2018-07-07T07:13:19.374Z,1021.67
2018-07-07T07:14:19.389Z,1021.66
2018-07-07T07:15:19.416Z,1021.69
2018-07-07T07:16:19.440Z,1021.69
2018-07-07T07:17:19.469Z,1021.74
2018-07-07T07:18:19.490Z,1021.74
2018-07-07T07:19:19.520Z,1021.80
2018-07-07T07:20:19.539Z,1021.88
2018-07-07T07:21:19.563Z,1021.85
2018-07-07T07:22:19.600Z,1021.91
2018-07-07T07:23:19.614Z,1021.91
2018-07-07T07:24:19.642Z,1021.88
2018-07-07T07:25:19.668Z,1021.95
2018-07-07T07:26:19.732Z,1021.84
2018-07-07T07:27:19.714Z,1021.76
2018-07-07T07:28:19.743Z,1021.76
2018-07-07T07:29:19.768Z,1021.86
2018-07-07T07:30:19.789Z,1021.83
2018-07-07T07:31:19.812Z,1021.91
2018-07-07T07:32:19.844Z,1021.84
2018-07-07T07:33:19.862Z,1021.84
2018-07-07T07:34:19.890Z,1021.83
2018-07-07T07:35:19.914Z,1021.82
2018-07-07T07:36:19.950Z,1021.87
2018-07-07T07:37:19.974Z,1021.88
2018-07-07T07:38:19.990Z,1021.86
2018-07-07T07:39:20.018Z,1021.95
2018-07-07T07:40:20.040Z,1021.99
2018-07-07T07:41:20.068Z,1022.00
2018-07-07T07:42:20.090Z,1021.87
2018-07-07T07:43:20.173Z,1022.01
2018-07-07T07:44:20.143Z,1021.87
2018-07-07T07:45:20.180Z,1021.89
2018-07-07T07:46:20.193Z,1021.90
2018-07-07T07:47:20.220Z,1021.85
2018-07-07T07:48:20.242Z,1021.83
2018-07-07T07:49:20.274Z,1021.89
2018-07-07T07:50:20.293Z,1021.86
2018-07-07T07:51:20.329Z,1021.96
2018-07-07T07:52:20.353Z,1021.99
2018-07-07T07:53:20.369Z,1022.07
2018-07-07T07:54:20.394Z,1022.01
2018-07-07T07:55:20.420Z,1021.92
2018-07-07T07:56:20.446Z,1021.94
2018-07-07T07:57:20.470Z,1021.99
2018-07-07T07:58:20.494Z,1021.91
2018-07-07T07:59:20.518Z,1021.93
2018-07-07T08:00:20.544Z,1021.89
2018-07-07T08:01:20.572Z,1021.87
2018-07-07T08:02:20.594Z,1021.91
2018-07-07T08:03:20.615Z,1021.94
2018-07-07T08:04:20.642Z,1022.01
2018-07-07T08:05:20.676Z,1021.99
2018-07-07T08:06:20.698Z,1021.96
2018-07-07T08:07:20.719Z,1021.94
2018-07-07T08:08:20.745Z,1021.88
2018-07-07T08:09:20.782Z,1021.94
2018-07-07T08:10:20.795Z,1021.90
2018-07-07T08:11:20.825Z,1022.03
2018-07-07T08:12:20.862Z,1021.93
2018-07-07T08:13:20.888Z,1021.95
2018-07-07T08:14:20.894Z,1021.99
2018-07-07T08:15:20.925Z,1022.10
2018-07-07T08:16:20.947Z,1021.90
2018-07-07T08:17:20.973Z,1021.96
2018-07-07T08:18:20.997Z,1022.09
2018-07-07T08:19:21.025Z,1022.00
2018-07-07T08:20:21.050Z,1021.85
2018-07-07T08:21:21.084Z,1021.81
2018-07-07T08:22:21.101Z,1021.97
2018-07-07T08:23:21.121Z,1021.94
2018-07-07T08:24:21.145Z,1021.86
2018-07-07T08:25:21.172Z,1021.94
2018-07-07T08:26:21.199Z,1022.01
2018-07-07T08:27:21.222Z,1021.91
2018-07-07T08:28:21.288Z,1021.95
2018-07-07T08:29:21.274Z,1022.04
2018-07-07T08:30:21.293Z,1021.93
2018-07-07T08:31:21.322Z,1021.94
2018-07-07T08:32:21.347Z,1021.87
2018-07-07T08:33:21.369Z,1021.75
2018-07-07T08:34:21.430Z,1021.87
2018-07-07T08:35:21.415Z,1021.80
2018-07-07T08:36:21.469Z,1021.88
2018-07-07T08:37:21.470Z,1021.81
2018-07-07T08:38:21.504Z,1021.86
2018-07-07T08:39:21.521Z,1021.82
2018-07-07T08:40:21.551Z,1021.81
2018-07-07T08:41:21.570Z,1021.82
2018-07-07T08:42:21.599Z,1021.78
2018-07-07T08:43:21.634Z,1021.87
2018-07-07T08:44:21.640Z,1021.98
2018-07-07T08:45:21.671Z,1021.94
2018-07-07T08:46:21.696Z,1021.92
2018-07-07T08:47:21.721Z,1021.94
2018-07-07T08:48:21.746Z,1021.93
2018-07-07T08:49:21.839Z,1021.97
2018-07-07T08:50:21.796Z,1021.96
2018-07-07T08:51:21.822Z,1022.02
2018-07-07T08:52:21.848Z,1022.06
2018-07-07T08:53:21.876Z,1022.05
2018-07-07T08:54:21.898Z,1022.05
2018-07-07T08:55:21.921Z,1022.03
2018-07-07T08:56:21.964Z,1021.95
2018-07-07T08:57:21.968Z,1022.03
2018-07-07T08:58:22.000Z,1022.13
2018-07-07T08:59:22.022Z,1021.98
2018-07-07T09:00:22.047Z,1021.96
2018-07-07T09:01:22.070Z,1021.97
2018-07-07T09:02:22.098Z,1021.92
2018-07-07T09:03:22.124Z,1022.08
2018-07-07T09:04:22.143Z,1022.00
2018-07-07T09:05:22.176Z,1021.93
2018-07-07T09:06:22.194Z,1021.95
2018-07-07T09:07:22.225Z,1021.97
2018-07-07T09:08:22.251Z,1021.92
2018-07-07T09:09:22.279Z,1022.03
2018-07-07T09:10:22.303Z,1021.90
2018-07-07T09:11:22.330Z,1021.93
2018-07-07T09:12:22.353Z,1021.83
2018-07-07T09:13:22.382Z,1021.87
2018-07-07T09:14:22.502Z,1021.93
2018-07-07T09:15:22.425Z,1021.89
2018-07-07T09:16:22.447Z,1021.89
2018-07-07T09:17:22.479Z,1021.89
2018-07-07T09:18:22.499Z,1021.88
2018-07-07T09:19:22.531Z,1021.81
2018-07-07T09:20:22.780Z,1021.81
2018-07-07T09:21:22.688Z,1021.77
2018-07-07T09:22:22.604Z,1021.78
2018-07-07T09:23:22.624Z,1021.79
2018-07-07T09:24:22.670Z,1021.81
2018-07-07T09:25:22.678Z,1021.75
2018-07-07T09:26:22.704Z,1021.83
2018-07-07T09:27:22.733Z,1021.89
2018-07-07T09:28:22.760Z,1021.87
2018-07-07T09:29:22.779Z,1021.98
2018-07-07T09:30:22.807Z,1021.93
2018-07-07T09:31:22.827Z,1021.97
2018-07-07T09:32:22.859Z,1022.06
2018-07-07T09:33:22.879Z,1021.95
2018-07-07T09:34:22.905Z,1021.95
2018-07-07T09:35:22.933Z,1022.03
2018-07-07T09:36:22.953Z,1021.99
2018-07-07T09:37:22.986Z,1021.87
2018-07-07T09:38:23.014Z,1022.02
2018-07-07T09:39:23.037Z,1021.91
2018-07-07T09:40:23.063Z,1022.04
2018-07-07T09:41:23.084Z,1021.84
2018-07-07T09:42:23.109Z,1021.97
2018-07-07T09:43:23.136Z,1021.93
2018-07-07T09:44:23.160Z,1021.97
2018-07-07T09:45:23.188Z,1021.83
2018-07-07T09:46:23.210Z,1021.96
2018-07-07T09:47:23.239Z,1021.91
2018-07-07T09:48:23.261Z,1021.93
2018-07-07T09:49:23.285Z,1021.87
2018-07-07T09:50:23.314Z,1021.83
2018-07-07T09:51:23.343Z,1021.91
2018-07-07T09:52:23.364Z,1021.88
2018-07-07T09:53:23.388Z,1021.94
2018-07-07T09:54:23.420Z,1021.85
2018-07-07T09:55:23.439Z,1021.84
2018-07-07T09:56:23.516Z,1022.04
2018-07-07T09:57:23.493Z,1022.03
2018-07-07T09:58:23.517Z,1021.98
2018-07-07T09:59:23.543Z,1021.96
2018-07-07T10:00:23.570Z,1021.97
2018-07-07T10:01:23.594Z,1022.01
2018-07-07T10:02:23.627Z,1021.92
2018-07-07T10:03:23.651Z,1022.02
2018-07-07T10:04:23.671Z,1021.96
2018-07-07T10:05:23.699Z,1021.98
2018-07-07T10:06:23.725Z,1021.99
2018-07-07T10:07:23.782Z,1022.03
2018-07-07T10:08:23.781Z,1021.99
2018-07-07T10:09:23.806Z,1022.01
2018-07-07T10:10:23.825Z,1021.99
2018-07-07T10:11:23.854Z,1022.15
2018-07-07T10:12:23.877Z,1022.13
2018-07-07T10:13:23.935Z,1022.14
2018-07-07T10:14:23.928Z,1022.37
2018-07-07T10:15:23.953Z,1022.28
2018-07-07T10:16:23.980Z,1022.26
2018-07-07T10:17:24.007Z,1022.35
2018-07-07T10:18:24.029Z,1022.33
2018-07-07T10:19:24.057Z,1022.18
2018-07-07T10:20:24.090Z,1022.09
2018-07-07T10:21:24.113Z,1022.13
2018-07-07T10:22:24.138Z,1022.19
2018-07-07T10:23:24.156Z,1022.27
2018-07-07T10:24:24.191Z,1022.28
2018-07-07T10:25:24.213Z,1022.31
2018-07-07T10:26:24.270Z,1022.37
2018-07-07T10:27:24.265Z,1022.47
2018-07-07T10:28:24.294Z,1022.52
2018-07-07T10:29:24.317Z,1022.47
2018-07-07T10:30:24.340Z,1022.45
2018-07-07T10:31:24.373Z,1022.51
2018-07-07T10:32:24.404Z,1022.39
2018-07-07T10:33:24.430Z,1022.38
2018-07-07T10:34:24.446Z,1022.30
2018-07-07T10:35:24.480Z,1022.43
2018-07-07T10:36:24.504Z,1022.33
2018-07-07T10:37:24.581Z,1022.23
2018-07-07T10:38:24.554Z,1022.29
2018-07-07T10:39:24.581Z,1022.29
2018-07-07T10:40:24.604Z,1022.21
2018-07-07T10:41:24.631Z,1022.35
2018-07-07T10:42:24.659Z,1022.37
2018-07-07T10:43:24.686Z,1022.27
2018-07-07T10:44:24.715Z,1022.25
2018-07-07T10:45:24.833Z,1022.07
2018-07-07T10:46:24.768Z,1022.33
2018-07-07T10:47:24.806Z,1022.02
2018-07-07T10:48:24.816Z,1022.12
2018-07-07T10:49:24.847Z,1022.15
2018-07-07T10:50:24.871Z,1022.25
2018-07-07T10:51:24.899Z,1022.18
2018-07-07T10:52:24.925Z,1022.21
2018-07-07T10:53:24.952Z,1022.11
2018-07-07T10:54:24.983Z,1022.06
2018-07-07T10:55:25.071Z,1022.02
2018-07-07T10:56:25.029Z,1022.42
2018-07-07T10:57:25.055Z,1022.17
2018-07-07T10:58:25.085Z,1022.19
2018-07-07T10:59:25.118Z,1022.14
2018-07-07T11:00:25.137Z,1022.21
2018-07-07T11:01:25.161Z,1022.25
2018-07-07T11:02:25.188Z,1022.28
2018-07-07T11:03:25.217Z,1022.22
2018-07-07T11:04:25.252Z,1022.11
2018-07-07T11:05:25.267Z,1022.14
2018-07-07T11:06:25.289Z,1022.29
2018-07-07T11:07:25.319Z,1022.36
2018-07-07T11:08:25.347Z,1022.37
2018-07-07T11:09:25.375Z,1022.54
2018-07-07T11:10:25.401Z,1022.45
2018-07-07T11:11:25.429Z,1022.81
2018-07-07T11:12:25.455Z,1022.66
2018-07-07T11:13:25.485Z,1022.62
2018-07-07T11:14:25.552Z,1022.48
2018-07-07T11:15:25.536Z,1022.53
2018-07-07T11:16:25.567Z,1022.57
2018-07-07T11:17:25.593Z,1022.57
2018-07-07T11:18:25.620Z,1022.68
2018-07-07T11:19:25.655Z,1022.58
2018-07-07T11:20:25.683Z,1022.68
2018-07-07T11:21:25.713Z,1022.68
2018-07-07T11:22:25.736Z,1022.79
2018-07-07T11:23:25.767Z,1022.74
2018-07-07T11:24:25.800Z,1022.65
2018-07-07T11:25:25.835Z,1022.72
2018-07-07T11:26:25.861Z,1022.86
2018-07-07T11:27:25.894Z,1022.72
2018-07-07T11:28:25.927Z,1022.88
2018-07-07T11:29:25.955Z,1022.75
2018-07-07T11:30:25.984Z,1022.74
2018-07-07T11:31:26.022Z,1022.73
2018-07-07T11:32:26.053Z,1022.79
2018-07-07T11:33:26.088Z,1022.70
2018-07-07T11:34:26.116Z,1022.77
2018-07-07T11:35:26.146Z,1022.86
2018-07-07T11:36:26.246Z,1022.78
2018-07-07T11:37:26.215Z,1022.81
2018-07-07T11:38:26.246Z,1022.85
2018-07-07T11:39:26.278Z,1022.75
2018-07-07T11:40:26.322Z,1022.71
2018-07-07T11:41:26.350Z,1022.96
2018-07-07T11:42:26.380Z,1022.81
2018-07-07T11:43:26.418Z,1022.81
2018-07-07T11:44:26.450Z,1022.84
2018-07-07T11:45:26.482Z,1023.00
2018-07-07T11:46:26.516Z,1022.85
2018-07-07T11:47:26.552Z,1022.83
2018-07-07T11:48:26.584Z,1022.74
2018-07-07T11:49:26.617Z,1022.90
2018-07-07T11:50:26.656Z,1022.82
2018-07-07T11:51:26.687Z,1022.89
2018-07-07T11:52:26.721Z,1022.86
2018-07-07T11:53:26.754Z,1023.02
2018-07-07T11:54:26.791Z,1022.80
2018-07-07T11:55:26.820Z,1022.87
2018-07-07T11:56:26.863Z,1022.82
2018-07-07T11:57:26.892Z,1022.81
2018-07-07T11:58:26.932Z,1022.79
2018-07-07T11:59:26.965Z,1022.78
2018-07-07T12:00:27.000Z,1022.81
2018-07-07T12:01:27.033Z,1022.80
2018-07-07T12:02:27.073Z,1022.78
2018-07-07T12:03:27.105Z,1023.03
2018-07-07T12:04:27.212Z,1023.00
2018-07-07T12:05:27.175Z,1022.99